sensor_id;sensor_type;location;lat;lon;timestamp;P1;durP1;ratioP1;P2;durP2;ratioP2
53646;SDS011;39550;52.230;5.194;2023-06-10T00:00:43;9.65;;;6.55;;
53646;SDS011;39550;52.230;5.194;2023-06-10T00:03:09;7.78;;;6.40;;
53646;SDS011;39550;52.230;5.194;2023-06-10T00:05:35;7.75;;;5.97;;
53646;SDS011;39550;52.230;5.194;2023-06-10T00:08:01;7.90;;;6.25;;
53646;SDS011;39550;52.230;5.194;2023-06-10T00:10:32;7.28;;;5.60;;
53646;SDS011;39550;52.230;5.194;2023-06-10T00:13:01;9.68;;;6.20;;
53646;SDS011;39550;52.230;5.194;2023-06-10T00:15:28;7.85;;;6.35;;
53646;SDS011;39550;52.230;5.194;2023-06-10T00:17:54;7.47;;;6.07;;
53646;SDS011;39550;52.230;5.194;2023-06-10T00:20:20;7.80;;;5.45;;
53646;SDS011;39550;52.230;5.194;2023-06-10T00:22:47;7.13;;;6.13;;
53646;SDS011;39550;52.230;5.194;2023-06-10T00:25:13;8.63;;;6.38;;
53646;SDS011;39550;52.230;5.194;2023-06-10T00:27:39;7.55;;;5.68;;
53646;SDS011;39550;52.230;5.194;2023-06-10T00:30:04;7.45;;;5.82;;
53646;SDS011;39550;52.230;5.194;2023-06-10T00:32:32;7.75;;;5.80;;
53646;SDS011;39550;52.230;5.194;2023-06-10T00:34:58;7.45;;;6.05;;
53646;SDS011;39550;52.230;5.194;2023-06-10T00:37:23;7.25;;;5.93;;
53646;SDS011;39550;52.230;5.194;2023-06-10T00:39:48;7.15;;;5.88;;
53646;SDS011;39550;52.230;5.194;2023-06-10T00:42:14;8.88;;;5.68;;
53646;SDS011;39550;52.230;5.194;2023-06-10T00:44:39;7.60;;;5.50;;
53646;SDS011;39550;52.230;5.194;2023-06-10T00:47:05;6.65;;;5.18;;
53646;SDS011;39550;52.230;5.194;2023-06-10T00:49:31;7.55;;;5.30;;
53646;SDS011;39550;52.230;5.194;2023-06-10T00:51:58;9.70;;;5.50;;
53646;SDS011;39550;52.230;5.194;2023-06-10T00:54:23;7.45;;;5.55;;
53646;SDS011;39550;52.230;5.194;2023-06-10T00:56:51;8.45;;;5.93;;
53646;SDS011;39550;52.230;5.194;2023-06-10T00:59:17;7.35;;;5.30;;
53646;SDS011;39550;52.230;5.194;2023-06-10T01:01:43;7.10;;;5.28;;
53646;SDS011;39550;52.230;5.194;2023-06-10T01:04:12;9.73;;;5.82;;
53646;SDS011;39550;52.230;5.194;2023-06-10T01:06:52;8.73;;;5.82;;
53646;SDS011;39550;52.230;5.194;2023-06-10T01:09:47;8.50;;;4.90;;
53646;SDS011;39550;52.230;5.194;2023-06-10T01:14:46;7.13;;;5.35;;
53646;SDS011;39550;52.230;5.194;2023-06-10T01:17:16;7.40;;;5.50;;
53646;SDS011;39550;52.230;5.194;2023-06-10T01:19:43;8.20;;;5.50;;
53646;SDS011;39550;52.230;5.194;2023-06-10T01:22:09;6.53;;;4.80;;
53646;SDS011;39550;52.230;5.194;2023-06-10T01:24:40;9.43;;;5.63;;
53646;SDS011;39550;52.230;5.194;2023-06-10T01:27:10;7.88;;;4.88;;
53646;SDS011;39550;52.230;5.194;2023-06-10T01:29:43;8.05;;;4.97;;
53646;SDS011;39550;52.230;5.194;2023-06-10T01:35:09;7.05;;;4.95;;
53646;SDS011;39550;52.230;5.194;2023-06-10T01:37:36;7.50;;;5.47;;
53646;SDS011;39550;52.230;5.194;2023-06-10T01:40:05;6.95;;;5.28;;
53646;SDS011;39550;52.230;5.194;2023-06-10T01:42:31;7.65;;;5.00;;
53646;SDS011;39550;52.230;5.194;2023-06-10T01:44:58;6.68;;;4.78;;
53646;SDS011;39550;52.230;5.194;2023-06-10T01:47:24;7.00;;;5.07;;
53646;SDS011;39550;52.230;5.194;2023-06-10T01:49:55;7.00;;;4.75;;
53646;SDS011;39550;52.230;5.194;2023-06-10T01:52:22;7.07;;;4.80;;
53646;SDS011;39550;52.230;5.194;2023-06-10T01:54:48;7.85;;;5.32;;
53646;SDS011;39550;52.230;5.194;2023-06-10T01:57:14;7.13;;;5.05;;
53646;SDS011;39550;52.230;5.194;2023-06-10T01:59:40;7.22;;;4.82;;
53646;SDS011;39550;52.230;5.194;2023-06-10T02:02:09;6.45;;;4.78;;
53646;SDS011;39550;52.230;5.194;2023-06-10T02:04:35;6.80;;;5.15;;
53646;SDS011;39550;52.230;5.194;2023-06-10T02:07:00;7.43;;;5.43;;
53646;SDS011;39550;52.230;5.194;2023-06-10T02:09:28;6.97;;;4.80;;
53646;SDS011;39550;52.230;5.194;2023-06-10T02:11:55;7.18;;;4.93;;
53646;SDS011;39550;52.230;5.194;2023-06-10T02:14:21;7.10;;;4.75;;
53646;SDS011;39550;52.230;5.194;2023-06-10T02:16:46;7.97;;;5.28;;
53646;SDS011;39550;52.230;5.194;2023-06-10T02:19:13;7.35;;;4.88;;
53646;SDS011;39550;52.230;5.194;2023-06-10T02:21:38;7.43;;;5.03;;
53646;SDS011;39550;52.230;5.194;2023-06-10T02:24:04;7.55;;;4.95;;
53646;SDS011;39550;52.230;5.194;2023-06-10T02:26:31;8.57;;;5.30;;
53646;SDS011;39550;52.230;5.194;2023-06-10T02:28:58;8.35;;;5.00;;
53646;SDS011;39550;52.230;5.194;2023-06-10T02:31:24;6.20;;;4.40;;
53646;SDS011;39550;52.230;5.194;2023-06-10T02:33:50;7.30;;;5.05;;
53646;SDS011;39550;52.230;5.194;2023-06-10T02:36:15;6.25;;;4.72;;
53646;SDS011;39550;52.230;5.194;2023-06-10T02:38:42;7.22;;;4.78;;
53646;SDS011;39550;52.230;5.194;2023-06-10T02:41:11;6.53;;;4.50;;
53646;SDS011;39550;52.230;5.194;2023-06-10T02:43:37;6.57;;;4.82;;
53646;SDS011;39550;52.230;5.194;2023-06-10T02:46:04;7.03;;;4.45;;
53646;SDS011;39550;52.230;5.194;2023-06-10T02:48:31;7.03;;;4.97;;
53646;SDS011;39550;52.230;5.194;2023-06-10T02:50:57;8.02;;;4.82;;
53646;SDS011;39550;52.230;5.194;2023-06-10T02:53:22;6.32;;;4.35;;
53646;SDS011;39550;52.230;5.194;2023-06-10T02:55:47;7.40;;;4.82;;
53646;SDS011;39550;52.230;5.194;2023-06-10T02:58:13;6.95;;;5.03;;
53646;SDS011;39550;52.230;5.194;2023-06-10T03:00:38;6.80;;;4.88;;
53646;SDS011;39550;52.230;5.194;2023-06-10T03:03:05;7.82;;;4.88;;
53646;SDS011;39550;52.230;5.194;2023-06-10T03:05:32;7.85;;;5.10;;
53646;SDS011;39550;52.230;5.194;2023-06-10T03:07:57;6.68;;;4.78;;
53646;SDS011;39550;52.230;5.194;2023-06-10T03:10:24;7.18;;;4.70;;
53646;SDS011;39550;52.230;5.194;2023-06-10T03:12:50;8.27;;;4.85;;
53646;SDS011;39550;52.230;5.194;2023-06-10T03:15:15;6.80;;;4.50;;
53646;SDS011;39550;52.230;5.194;2023-06-10T03:17:41;7.13;;;4.60;;
53646;SDS011;39550;52.230;5.194;2023-06-10T03:20:06;7.45;;;4.95;;
53646;SDS011;39550;52.230;5.194;2023-06-10T03:22:35;6.35;;;4.82;;
53646;SDS011;39550;52.230;5.194;2023-06-10T03:25:00;6.60;;;4.93;;
53646;SDS011;39550;52.230;5.194;2023-06-10T03:27:26;7.22;;;5.03;;
53646;SDS011;39550;52.230;5.194;2023-06-10T03:29:51;7.95;;;5.05;;
53646;SDS011;39550;52.230;5.194;2023-06-10T03:32:17;6.38;;;4.60;;
53646;SDS011;39550;52.230;5.194;2023-06-10T03:34:43;6.65;;;4.75;;
53646;SDS011;39550;52.230;5.194;2023-06-10T03:37:10;7.15;;;4.50;;
53646;SDS011;39550;52.230;5.194;2023-06-10T03:39:35;6.53;;;4.53;;
53646;SDS011;39550;52.230;5.194;2023-06-10T03:42:00;7.07;;;5.13;;
53646;SDS011;39550;52.230;5.194;2023-06-10T03:44:26;6.63;;;4.72;;
53646;SDS011;39550;52.230;5.194;2023-06-10T03:46:55;8.25;;;4.78;;
53646;SDS011;39550;52.230;5.194;2023-06-10T03:49:22;7.22;;;4.60;;
53646;SDS011;39550;52.230;5.194;2023-06-10T03:51:52;6.68;;;4.80;;
53646;SDS011;39550;52.230;5.194;2023-06-10T03:54:17;7.10;;;4.53;;
53646;SDS011;39550;52.230;5.194;2023-06-10T03:56:43;6.30;;;4.72;;
53646;SDS011;39550;52.230;5.194;2023-06-10T03:59:09;7.15;;;5.15;;
53646;SDS011;39550;52.230;5.194;2023-06-10T04:01:34;10.45;;;4.97;;
53646;SDS011;39550;52.230;5.194;2023-06-10T04:04:03;8.18;;;5.20;;
53646;SDS011;39550;52.230;5.194;2023-06-10T04:06:28;6.20;;;4.45;;
53646;SDS011;39550;52.230;5.194;2023-06-10T04:08:54;6.93;;;4.85;;
53646;SDS011;39550;52.230;5.194;2023-06-10T04:11:22;8.90;;;5.07;;
53646;SDS011;39550;52.230;5.194;2023-06-10T04:13:49;8.68;;;5.15;;
53646;SDS011;39550;52.230;5.194;2023-06-10T04:16:16;7.78;;;5.07;;
53646;SDS011;39550;52.230;5.194;2023-06-10T04:18:42;6.65;;;4.53;;
53646;SDS011;39550;52.230;5.194;2023-06-10T04:21:07;7.43;;;4.72;;
53646;SDS011;39550;52.230;5.194;2023-06-10T04:23:34;7.45;;;5.05;;
53646;SDS011;39550;52.230;5.194;2023-06-10T04:26:00;7.22;;;4.65;;
53646;SDS011;39550;52.230;5.194;2023-06-10T04:28:25;6.82;;;4.47;;
53646;SDS011;39550;52.230;5.194;2023-06-10T04:30:51;7.70;;;5.40;;
53646;SDS011;39550;52.230;5.194;2023-06-10T04:33:17;7.75;;;4.60;;
53646;SDS011;39550;52.230;5.194;2023-06-10T04:35:42;7.30;;;4.65;;
53646;SDS011;39550;52.230;5.194;2023-06-10T04:38:09;7.72;;;5.32;;
53646;SDS011;39550;52.230;5.194;2023-06-10T04:40:35;7.85;;;5.20;;
53646;SDS011;39550;52.230;5.194;2023-06-10T04:43:00;7.60;;;5.20;;
53646;SDS011;39550;52.230;5.194;2023-06-10T04:45:26;8.32;;;5.22;;
53646;SDS011;39550;52.230;5.194;2023-06-10T04:47:51;7.32;;;4.68;;
53646;SDS011;39550;52.230;5.194;2023-06-10T04:50:17;7.07;;;4.40;;
53646;SDS011;39550;52.230;5.194;2023-06-10T04:52:43;6.75;;;4.95;;
53646;SDS011;39550;52.230;5.194;2023-06-10T04:55:10;7.55;;;4.80;;
53646;SDS011;39550;52.230;5.194;2023-06-10T04:57:36;7.93;;;4.95;;
53646;SDS011;39550;52.230;5.194;2023-06-10T05:00:01;7.85;;;5.05;;
53646;SDS011;39550;52.230;5.194;2023-06-10T05:04:56;7.87;;;5.07;;
53646;SDS011;39550;52.230;5.194;2023-06-10T05:07:22;7.95;;;5.30;;
53646;SDS011;39550;52.230;5.194;2023-06-10T05:09:48;6.57;;;4.53;;
53646;SDS011;39550;52.230;5.194;2023-06-10T05:12:14;7.45;;;4.65;;
53646;SDS011;39550;52.230;5.194;2023-06-10T05:14:39;6.63;;;5.00;;
53646;SDS011;39550;52.230;5.194;2023-06-10T05:17:04;7.20;;;4.80;;
53646;SDS011;39550;52.230;5.194;2023-06-10T05:19:31;8.13;;;4.90;;
53646;SDS011;39550;52.230;5.194;2023-06-10T05:21:57;6.95;;;4.88;;
53646;SDS011;39550;52.230;5.194;2023-06-10T05:24:22;7.72;;;4.72;;
53646;SDS011;39550;52.230;5.194;2023-06-10T05:26:48;7.78;;;5.20;;
53646;SDS011;39550;52.230;5.194;2023-06-10T05:29:14;7.28;;;4.80;;
53646;SDS011;39550;52.230;5.194;2023-06-10T05:31:40;7.60;;;4.63;;
53646;SDS011;39550;52.230;5.194;2023-06-10T05:34:06;6.82;;;4.78;;
53646;SDS011;39550;52.230;5.194;2023-06-10T05:36:31;8.38;;;4.82;;
53646;SDS011;39550;52.230;5.194;2023-06-10T05:38:57;8.20;;;5.38;;
53646;SDS011;39550;52.230;5.194;2023-06-10T05:41:22;7.88;;;5.00;;
53646;SDS011;39550;52.230;5.194;2023-06-10T05:43:48;7.93;;;5.30;;
53646;SDS011;39550;52.230;5.194;2023-06-10T05:46:13;9.35;;;5.28;;
53646;SDS011;39550;52.230;5.194;2023-06-10T05:48:39;8.20;;;5.35;;
53646;SDS011;39550;52.230;5.194;2023-06-10T05:51:04;7.45;;;4.70;;
53646;SDS011;39550;52.230;5.194;2023-06-10T05:53:31;6.18;;;4.70;;
53646;SDS011;39550;52.230;5.194;2023-06-10T05:55:57;8.93;;;5.25;;
53646;SDS011;39550;52.230;5.194;2023-06-10T05:58:23;8.07;;;5.07;;
53646;SDS011;39550;52.230;5.194;2023-06-10T06:00:49;7.75;;;4.88;;
53646;SDS011;39550;52.230;5.194;2023-06-10T06:03:14;10.68;;;5.75;;
53646;SDS011;39550;52.230;5.194;2023-06-10T06:05:40;9.63;;;6.00;;
53646;SDS011;39550;52.230;5.194;2023-06-10T06:08:05;8.18;;;5.20;;
53646;SDS011;39550;52.230;5.194;2023-06-10T06:10:31;8.77;;;5.18;;
53646;SDS011;39550;52.230;5.194;2023-06-10T06:12:56;7.10;;;5.30;;
53646;SDS011;39550;52.230;5.194;2023-06-10T06:15:22;7.95;;;5.05;;
53646;SDS011;39550;52.230;5.194;2023-06-10T06:17:48;12.00;;;5.40;;
53646;SDS011;39550;52.230;5.194;2023-06-10T06:20:15;7.65;;;5.30;;
53646;SDS011;39550;52.230;5.194;2023-06-10T06:22:40;8.98;;;5.35;;
53646;SDS011;39550;52.230;5.194;2023-06-10T06:25:06;9.55;;;5.38;;
53646;SDS011;39550;52.230;5.194;2023-06-10T06:27:31;8.60;;;5.32;;
53646;SDS011;39550;52.230;5.194;2023-06-10T06:29:56;8.32;;;5.10;;
53646;SDS011;39550;52.230;5.194;2023-06-10T06:32:22;13.82;;;5.30;;
53646;SDS011;39550;52.230;5.194;2023-06-10T06:34:49;10.20;;;5.13;;
53646;SDS011;39550;52.230;5.194;2023-06-10T06:37:19;13.32;;;5.80;;
53646;SDS011;39550;52.230;5.194;2023-06-10T06:39:48;11.90;;;5.88;;
53646;SDS011;39550;52.230;5.194;2023-06-10T06:42:15;10.45;;;5.30;;
53646;SDS011;39550;52.230;5.194;2023-06-10T06:44:40;9.63;;;5.32;;
53646;SDS011;39550;52.230;5.194;2023-06-10T06:47:06;14.77;;;6.30;;
53646;SDS011;39550;52.230;5.194;2023-06-10T06:49:31;11.40;;;6.03;;
53646;SDS011;39550;52.230;5.194;2023-06-10T06:51:57;8.60;;;5.53;;
53646;SDS011;39550;52.230;5.194;2023-06-10T06:54:22;12.60;;;6.03;;
53646;SDS011;39550;52.230;5.194;2023-06-10T06:56:47;12.07;;;5.95;;
53646;SDS011;39550;52.230;5.194;2023-06-10T06:59:13;10.80;;;5.43;;
53646;SDS011;39550;52.230;5.194;2023-06-10T07:01:39;13.48;;;6.20;;
53646;SDS011;39550;52.230;5.194;2023-06-10T07:04:04;11.15;;;5.80;;
53646;SDS011;39550;52.230;5.194;2023-06-10T07:06:30;9.25;;;5.13;;
53646;SDS011;39550;52.230;5.194;2023-06-10T07:08:55;11.82;;;5.78;;
53646;SDS011;39550;52.230;5.194;2023-06-10T07:11:20;8.45;;;5.32;;
53646;SDS011;39550;52.230;5.194;2023-06-10T07:13:47;10.15;;;5.45;;
53646;SDS011;39550;52.230;5.194;2023-06-10T07:16:12;8.80;;;5.35;;
53646;SDS011;39550;52.230;5.194;2023-06-10T07:18:37;9.70;;;5.18;;
53646;SDS011;39550;52.230;5.194;2023-06-10T07:21:03;11.88;;;5.47;;
53646;SDS011;39550;52.230;5.194;2023-06-10T07:23:28;9.55;;;4.70;;
53646;SDS011;39550;52.230;5.194;2023-06-10T07:25:54;7.32;;;5.32;;
53646;SDS011;39550;52.230;5.194;2023-06-10T07:28:19;11.13;;;5.53;;
53646;SDS011;39550;52.230;5.194;2023-06-10T07:30:44;75.07;;;11.68;;
53646;SDS011;39550;52.230;5.194;2023-06-10T07:33:10;68.95;;;12.43;;
53646;SDS011;39550;52.230;5.194;2023-06-10T07:38:57;51.22;;;11.23;;
53646;SDS011;39550;52.230;5.194;2023-06-10T07:41:23;27.25;;;8.35;;
53646;SDS011;39550;52.230;5.194;2023-06-10T07:43:50;33.03;;;8.77;;
53646;SDS011;39550;52.230;5.194;2023-06-10T07:46:24;34.30;;;8.68;;
53646;SDS011;39550;52.230;5.194;2023-06-10T07:48:52;29.25;;;7.72;;
53646;SDS011;39550;52.230;5.194;2023-06-10T07:51:18;32.90;;;7.80;;
53646;SDS011;39550;52.230;5.194;2023-06-10T07:53:43;33.28;;;7.43;;
53646;SDS011;39550;52.230;5.194;2023-06-10T07:56:09;32.17;;;8.85;;
53646;SDS011;39550;52.230;5.194;2023-06-10T07:58:34;63.60;;;11.07;;
53646;SDS011;39550;52.230;5.194;2023-06-10T08:00:59;46.78;;;10.57;;
53646;SDS011;39550;52.230;5.194;2023-06-10T08:03:25;32.58;;;8.30;;
53646;SDS011;39550;52.230;5.194;2023-06-10T08:05:50;37.80;;;8.50;;
53646;SDS011;39550;52.230;5.194;2023-06-10T08:08:15;40.25;;;8.93;;
53646;SDS011;39550;52.230;5.194;2023-06-10T08:10:41;37.70;;;9.02;;
53646;SDS011;39550;52.230;5.194;2023-06-10T08:13:07;33.95;;;8.13;;
53646;SDS011;39550;52.230;5.194;2023-06-10T08:15:33;34.67;;;10.13;;
53646;SDS011;39550;52.230;5.194;2023-06-10T08:17:58;30.58;;;9.27;;
53646;SDS011;39550;52.230;5.194;2023-06-10T08:20:23;23.08;;;8.02;;
53646;SDS011;39550;52.230;5.194;2023-06-10T08:22:49;25.65;;;7.40;;
53646;SDS011;39550;52.230;5.194;2023-06-10T08:25:14;33.33;;;7.93;;
53646;SDS011;39550;52.230;5.194;2023-06-10T08:27:40;29.02;;;8.43;;
53646;SDS011;39550;52.230;5.194;2023-06-10T08:30:05;16.70;;;7.05;;
53646;SDS011;39550;52.230;5.194;2023-06-10T08:32:31;14.50;;;6.57;;
53646;SDS011;39550;52.230;5.194;2023-06-10T08:34:57;12.05;;;6.38;;
53646;SDS011;39550;52.230;5.194;2023-06-10T08:37:22;11.93;;;6.25;;
53646;SDS011;39550;52.230;5.194;2023-06-10T08:39:49;11.80;;;5.93;;
53646;SDS011;39550;52.230;5.194;2023-06-10T08:42:34;18.02;;;6.30;;
53646;SDS011;39550;52.230;5.194;2023-06-10T08:45:08;10.45;;;5.40;;
53646;SDS011;39550;52.230;5.194;2023-06-10T08:47:42;13.52;;;5.93;;
53646;SDS011;39550;52.230;5.194;2023-06-10T08:50:11;11.45;;;5.97;;
53646;SDS011;39550;52.230;5.194;2023-06-10T08:52:37;11.95;;;5.97;;
53646;SDS011;39550;52.230;5.194;2023-06-10T08:55:49;13.43;;;5.72;;
53646;SDS011;39550;52.230;5.194;2023-06-10T08:58:03;12.18;;;6.57;;
53646;SDS011;39550;52.230;5.194;2023-06-10T09:00:29;9.13;;;5.68;;
53646;SDS011;39550;52.230;5.194;2023-06-10T09:02:55;10.27;;;5.82;;
53646;SDS011;39550;52.230;5.194;2023-06-10T09:05:21;8.95;;;5.53;;
53646;SDS011;39550;52.230;5.194;2023-06-10T09:07:47;11.88;;;5.28;;
53646;SDS011;39550;52.230;5.194;2023-06-10T09:10:13;14.85;;;6.38;;
53646;SDS011;39550;52.230;5.194;2023-06-10T09:12:39;12.32;;;6.35;;
53646;SDS011;39550;52.230;5.194;2023-06-10T09:15:05;11.18;;;5.63;;
53646;SDS011;39550;52.230;5.194;2023-06-10T09:17:31;11.48;;;5.93;;
53646;SDS011;39550;52.230;5.194;2023-06-10T09:19:57;11.05;;;5.65;;
53646;SDS011;39550;52.230;5.194;2023-06-10T09:22:25;7.80;;;5.00;;
53646;SDS011;39550;52.230;5.194;2023-06-10T09:24:51;10.23;;;5.30;;
53646;SDS011;39550;52.230;5.194;2023-06-10T09:27:26;9.93;;;5.32;;
53646;SDS011;39550;52.230;5.194;2023-06-10T09:29:55;10.40;;;5.45;;
53646;SDS011;39550;52.230;5.194;2023-06-10T09:32:22;8.30;;;5.40;;
53646;SDS011;39550;52.230;5.194;2023-06-10T09:34:48;9.20;;;5.35;;
53646;SDS011;39550;52.230;5.194;2023-06-10T09:37:22;7.95;;;5.53;;
53646;SDS011;39550;52.230;5.194;2023-06-10T09:40:07;10.18;;;5.60;;
53646;SDS011;39550;52.230;5.194;2023-06-10T09:42:34;24.95;;;7.32;;
53646;SDS011;39550;52.230;5.194;2023-06-10T09:45:02;13.30;;;5.90;;
53646;SDS011;39550;52.230;5.194;2023-06-10T09:47:28;13.00;;;6.10;;
53646;SDS011;39550;52.230;5.194;2023-06-10T09:49:53;10.75;;;5.93;;
53646;SDS011;39550;52.230;5.194;2023-06-10T09:52:25;9.25;;;6.05;;
53646;SDS011;39550;52.230;5.194;2023-06-10T09:54:51;10.77;;;5.40;;
53646;SDS011;39550;52.230;5.194;2023-06-10T09:57:17;8.45;;;5.50;;
53646;SDS011;39550;52.230;5.194;2023-06-10T09:59:44;8.73;;;5.47;;
53646;SDS011;39550;52.230;5.194;2023-06-10T10:02:14;9.32;;;5.45;;
53646;SDS011;39550;52.230;5.194;2023-06-10T10:04:42;11.95;;;5.70;;
53646;SDS011;39550;52.230;5.194;2023-06-10T10:07:09;8.52;;;5.47;;
53646;SDS011;39550;52.230;5.194;2023-06-10T10:09:36;8.85;;;5.82;;
53646;SDS011;39550;52.230;5.194;2023-06-10T10:12:11;8.95;;;5.20;;
53646;SDS011;39550;52.230;5.194;2023-06-10T10:14:39;11.85;;;5.60;;
53646;SDS011;39550;52.230;5.194;2023-06-10T10:17:11;14.02;;;5.68;;
53646;SDS011;39550;52.230;5.194;2023-06-10T10:22:24;12.68;;;5.70;;
53646;SDS011;39550;52.230;5.194;2023-06-10T10:24:59;19.20;;;5.93;;
53646;SDS011;39550;52.230;5.194;2023-06-10T10:27:33;18.33;;;6.38;;
53646;SDS011;39550;52.230;5.194;2023-06-10T10:30:03;14.98;;;6.05;;
53646;SDS011;39550;52.230;5.194;2023-06-10T10:32:35;15.85;;;6.57;;
53646;SDS011;39550;52.230;5.194;2023-06-10T10:37:35;24.08;;;7.38;;
53646;SDS011;39550;52.230;5.194;2023-06-10T10:40:01;22.45;;;6.32;;
53646;SDS011;39550;52.230;5.194;2023-06-10T10:42:28;15.07;;;6.63;;
53646;SDS011;39550;52.230;5.194;2023-06-10T10:44:55;26.23;;;6.95;;
53646;SDS011;39550;52.230;5.194;2023-06-10T10:47:21;17.30;;;6.45;;
53646;SDS011;39550;52.230;5.194;2023-06-10T10:49:48;18.08;;;6.88;;
53646;SDS011;39550;52.230;5.194;2023-06-10T10:52:18;12.60;;;5.82;;
53646;SDS011;39550;52.230;5.194;2023-06-10T10:54:44;13.43;;;5.72;;
53646;SDS011;39550;52.230;5.194;2023-06-10T10:57:18;17.38;;;6.68;;
53646;SDS011;39550;52.230;5.194;2023-06-10T11:02:31;13.57;;;5.47;;
53646;SDS011;39550;52.230;5.194;2023-06-10T11:05:03;12.45;;;5.70;;
53646;SDS011;39550;52.230;5.194;2023-06-10T11:07:30;12.20;;;5.60;;
53646;SDS011;39550;52.230;5.194;2023-06-10T11:12:24;14.57;;;5.93;;
53646;SDS011;39550;52.230;5.194;2023-06-10T11:14:54;12.98;;;6.30;;
53646;SDS011;39550;52.230;5.194;2023-06-10T11:17:20;18.98;;;6.20;;
53646;SDS011;39550;52.230;5.194;2023-06-10T11:19:46;20.63;;;6.50;;
53646;SDS011;39550;52.230;5.194;2023-06-10T11:22:15;12.70;;;5.95;;
53646;SDS011;39550;52.230;5.194;2023-06-10T11:24:42;13.23;;;5.85;;
53646;SDS011;39550;52.230;5.194;2023-06-10T11:32:29;14.52;;;6.07;;
53646;SDS011;39550;52.230;5.194;2023-06-10T11:34:56;15.48;;;5.70;;
53646;SDS011;39550;52.230;5.194;2023-06-10T11:37:22;11.93;;;5.80;;
53646;SDS011;39550;52.230;5.194;2023-06-10T11:39:52;13.15;;;5.82;;
53646;SDS011;39550;52.230;5.194;2023-06-10T11:42:19;11.90;;;6.43;;
53646;SDS011;39550;52.230;5.194;2023-06-10T11:44:51;9.00;;;4.82;;
53646;SDS011;39550;52.230;5.194;2023-06-10T11:47:18;10.65;;;4.80;;
53646;SDS011;39550;52.230;5.194;2023-06-10T11:49:45;19.10;;;6.47;;
53646;SDS011;39550;52.230;5.194;2023-06-10T11:52:11;10.65;;;5.65;;
53646;SDS011;39550;52.230;5.194;2023-06-10T11:54:37;9.15;;;5.15;;
53646;SDS011;39550;52.230;5.194;2023-06-10T11:57:03;14.65;;;5.60;;
53646;SDS011;39550;52.230;5.194;2023-06-10T11:59:29;9.57;;;5.15;;
53646;SDS011;39550;52.230;5.194;2023-06-10T12:01:55;12.27;;;5.40;;
53646;SDS011;39550;52.230;5.194;2023-06-10T12:04:21;10.65;;;5.32;;
53646;SDS011;39550;52.230;5.194;2023-06-10T12:06:51;11.30;;;5.50;;
53646;SDS011;39550;52.230;5.194;2023-06-10T12:11:45;13.93;;;6.30;;
53646;SDS011;39550;52.230;5.194;2023-06-10T12:14:15;11.30;;;5.95;;
53646;SDS011;39550;52.230;5.194;2023-06-10T12:16:40;9.18;;;5.60;;
53646;SDS011;39550;52.230;5.194;2023-06-10T12:19:12;11.38;;;5.78;;
53646;SDS011;39550;52.230;5.194;2023-06-10T12:21:38;11.85;;;5.57;;
53646;SDS011;39550;52.230;5.194;2023-06-10T12:26:43;13.00;;;5.07;;
53646;SDS011;39550;52.230;5.194;2023-06-10T12:29:23;11.57;;;4.95;;
53646;SDS011;39550;52.230;5.194;2023-06-10T12:34:37;13.93;;;5.35;;
53646;SDS011;39550;52.230;5.194;2023-06-10T12:37:10;53.47;;;10.13;;
53646;SDS011;39550;52.230;5.194;2023-06-10T12:39:38;26.50;;;7.03;;
53646;SDS011;39550;52.230;5.194;2023-06-10T12:42:04;22.00;;;6.15;;
53646;SDS011;39550;52.230;5.194;2023-06-10T12:44:34;17.00;;;6.32;;
53646;SDS011;39550;52.230;5.194;2023-06-10T12:47:06;24.98;;;6.22;;
53646;SDS011;39550;52.230;5.194;2023-06-10T12:49:37;13.18;;;6.25;;
53646;SDS011;39550;52.230;5.194;2023-06-10T12:52:03;13.13;;;6.10;;
53646;SDS011;39550;52.230;5.194;2023-06-10T12:54:29;14.98;;;6.03;;
53646;SDS011;39550;52.230;5.194;2023-06-10T12:56:54;12.07;;;5.78;;
53646;SDS011;39550;52.230;5.194;2023-06-10T12:59:20;11.63;;;5.72;;
53646;SDS011;39550;52.230;5.194;2023-06-10T13:01:51;9.90;;;5.20;;
53646;SDS011;39550;52.230;5.194;2023-06-10T13:04:17;12.48;;;5.28;;
53646;SDS011;39550;52.230;5.194;2023-06-10T13:06:43;9.30;;;5.00;;
53646;SDS011;39550;52.230;5.194;2023-06-10T13:09:09;11.30;;;4.85;;
53646;SDS011;39550;52.230;5.194;2023-06-10T13:11:34;11.13;;;5.53;;
53646;SDS011;39550;52.230;5.194;2023-06-10T13:14:01;12.32;;;5.13;;
53646;SDS011;39550;52.230;5.194;2023-06-10T13:16:27;9.93;;;5.47;;
53646;SDS011;39550;52.230;5.194;2023-06-10T13:18:53;9.82;;;4.78;;
53646;SDS011;39550;52.230;5.194;2023-06-10T13:21:19;10.95;;;5.35;;
53646;SDS011;39550;52.230;5.194;2023-06-10T13:23:45;8.50;;;5.45;;
53646;SDS011;39550;52.230;5.194;2023-06-10T13:26:12;7.43;;;5.25;;
53646;SDS011;39550;52.230;5.194;2023-06-10T13:28:38;10.20;;;5.53;;
53646;SDS011;39550;52.230;5.194;2023-06-10T13:31:04;9.68;;;5.30;;
53646;SDS011;39550;52.230;5.194;2023-06-10T13:33:29;9.50;;;5.20;;
53646;SDS011;39550;52.230;5.194;2023-06-10T13:35:54;9.40;;;5.20;;
53646;SDS011;39550;52.230;5.194;2023-06-10T13:38:20;7.68;;;4.82;;
53646;SDS011;39550;52.230;5.194;2023-06-10T13:40:45;11.75;;;4.70;;
53646;SDS011;39550;52.230;5.194;2023-06-10T13:43:10;13.55;;;5.38;;
53646;SDS011;39550;52.230;5.194;2023-06-10T13:45:36;13.57;;;5.13;;
53646;SDS011;39550;52.230;5.194;2023-06-10T13:48:01;9.57;;;4.80;;
53646;SDS011;39550;52.230;5.194;2023-06-10T13:50:29;7.60;;;4.65;;
53646;SDS011;39550;52.230;5.194;2023-06-10T13:52:54;9.35;;;4.80;;
53646;SDS011;39550;52.230;5.194;2023-06-10T13:55:19;9.18;;;4.30;;
53646;SDS011;39550;52.230;5.194;2023-06-10T13:57:45;8.93;;;4.65;;
53646;SDS011;39550;52.230;5.194;2023-06-10T14:00:11;7.22;;;4.75;;
53646;SDS011;39550;52.230;5.194;2023-06-10T14:02:36;12.02;;;5.32;;
53646;SDS011;39550;52.230;5.194;2023-06-10T14:05:02;9.45;;;4.82;;
53646;SDS011;39550;52.230;5.194;2023-06-10T14:07:27;11.52;;;5.95;;
53646;SDS011;39550;52.230;5.194;2023-06-10T14:09:53;9.38;;;4.85;;
53646;SDS011;39550;52.230;5.194;2023-06-10T14:12:18;7.47;;;4.40;;
53646;SDS011;39550;52.230;5.194;2023-06-10T14:14:43;6.38;;;4.70;;
53646;SDS011;39550;52.230;5.194;2023-06-10T14:17:09;8.85;;;4.60;;
53646;SDS011;39550;52.230;5.194;2023-06-10T14:19:34;7.72;;;4.70;;
53646;SDS011;39550;52.230;5.194;2023-06-10T14:22:00;8.63;;;5.07;;
53646;SDS011;39550;52.230;5.194;2023-06-10T14:24:25;7.78;;;4.72;;
53646;SDS011;39550;52.230;5.194;2023-06-10T14:26:50;8.97;;;4.73;;
53646;SDS011;39550;52.230;5.194;2023-06-10T14:29:15;12.05;;;4.90;;
53646;SDS011;39550;52.230;5.194;2023-06-10T14:31:42;8.07;;;4.95;;
53646;SDS011;39550;52.230;5.194;2023-06-10T14:34:07;6.57;;;5.00;;
53646;SDS011;39550;52.230;5.194;2023-06-10T14:36:33;10.25;;;4.30;;
53646;SDS011;39550;52.230;5.194;2023-06-10T14:38:59;8.65;;;5.00;;
53646;SDS011;39550;52.230;5.194;2023-06-10T14:41:24;7.60;;;4.68;;
53646;SDS011;39550;52.230;5.194;2023-06-10T14:43:49;7.10;;;4.75;;
53646;SDS011;39550;52.230;5.194;2023-06-10T14:46:15;8.75;;;4.88;;
53646;SDS011;39550;52.230;5.194;2023-06-10T14:48:40;7.28;;;4.28;;
53646;SDS011;39550;52.230;5.194;2023-06-10T14:51:06;8.85;;;5.00;;
53646;SDS011;39550;52.230;5.194;2023-06-10T14:53:31;7.30;;;4.75;;
53646;SDS011;39550;52.230;5.194;2023-06-10T14:55:56;7.03;;;4.35;;
53646;SDS011;39550;52.230;5.194;2023-06-10T14:58:22;8.97;;;4.40;;
53646;SDS011;39550;52.230;5.194;2023-06-10T15:00:47;9.23;;;4.85;;
53646;SDS011;39550;52.230;5.194;2023-06-10T15:03:12;6.95;;;4.80;;
53646;SDS011;39550;52.230;5.194;2023-06-10T15:05:38;6.95;;;4.68;;
53646;SDS011;39550;52.230;5.194;2023-06-10T15:08:04;7.47;;;4.93;;
53646;SDS011;39550;52.230;5.194;2023-06-10T15:10:30;10.70;;;4.45;;
53646;SDS011;39550;52.230;5.194;2023-06-10T15:12:55;11.35;;;4.68;;
53646;SDS011;39550;52.230;5.194;2023-06-10T15:15:23;10.65;;;4.80;;